createdAt,value
2018-09-23T00:01:16.611Z,95266.00
2018-09-23T00:03:48.451Z,95262.00
2018-09-23T00:06:21.339Z,95261.00
2018-09-23T00:08:53.750Z,95265.00
2018-09-23T00:11:26.364Z,95257.00
2018-09-23T00:13:58.371Z,95259.00
2018-09-23T00:16:30.568Z,95253.00
2018-09-23T00:19:02.665Z,95250.00
2018-09-23T00:21:34.777Z,95252.00
2018-09-23T00:24:06.714Z,95251.00
2018-09-23T00:26:38.558Z,95247.00
2018-09-23T00:29:10.676Z,95243.00
2018-09-23T00:31:42.536Z,95240.00
2018-09-23T00:34:14.658Z,95234.00
2018-09-23T00:36:46.520Z,95242.00
2018-09-23T00:39:18.474Z,95237.00
2018-09-23T00:41:50.721Z,95237.00
2018-09-23T00:44:22.539Z,95238.00
2018-09-23T00:46:55.633Z,95240.00
2018-09-23T00:49:27.807Z,95247.00
2018-09-23T00:52:00.543Z,95250.00
2018-09-23T00:54:32.497Z,95252.00
2018-09-23T00:57:04.689Z,95256.00
2018-09-23T00:59:37.952Z,95250.00
2018-09-23T01:02:10.144Z,95257.00
2018-09-23T01:04:42.127Z,95254.00
2018-09-23T01:07:14.648Z,95250.00
2018-09-23T01:09:46.560Z,95247.00
2018-09-23T01:12:18.467Z,95249.00
2018-09-23T01:14:51.947Z,95249.00
2018-09-23T01:17:24.128Z,95250.00
2018-09-23T01:19:56.519Z,95258.00
2018-09-23T01:22:28.439Z,95257.00
2018-09-23T01:25:01.502Z,95251.00
2018-09-23T01:27:33.614Z,95251.00
2018-09-23T01:30:05.796Z,95252.00
2018-09-23T01:32:37.895Z,95261.00
2018-09-23T01:35:09.914Z,95263.00
2018-09-23T01:37:41.896Z,95256.00
2018-09-23T01:40:14.035Z,95251.00
2018-09-23T01:42:46.098Z,95246.00
2018-09-23T01:45:18.120Z,95256.00
2018-09-23T01:47:50.587Z,95256.00
2018-09-23T01:50:22.540Z,95254.00
2018-09-23T01:52:54.755Z,95250.00
2018-09-23T01:55:27.041Z,95248.00
2018-09-23T01:58:00.090Z,95254.00
2018-09-23T02:00:32.112Z,95252.00
2018-09-23T02:03:04.911Z,95252.00
2018-09-23T02:05:36.720Z,95248.00
2018-09-23T02:08:08.570Z,95249.00
2018-09-23T02:10:40.552Z,95251.00
2018-09-23T02:13:12.876Z,95257.00
2018-09-23T02:15:44.653Z,95260.00
2018-09-23T02:18:16.473Z,95256.00
2018-09-23T02:20:48.631Z,95252.00
2018-09-23T02:23:20.564Z,95252.00
2018-09-23T02:25:52.496Z,95259.00
2018-09-23T02:28:24.781Z,95262.00
2018-09-23T02:30:56.897Z,95264.00
2018-09-23T02:33:28.746Z,95268.00
2018-09-23T02:36:00.760Z,95267.00
2018-09-23T02:38:32.638Z,95267.00
2018-09-23T02:41:05.431Z,95257.00
2018-09-23T02:43:37.188Z,95260.00
2018-09-23T02:46:09.781Z,95259.00
2018-09-23T02:48:41.874Z,95261.00
2018-09-23T02:51:14.777Z,95262.00
2018-09-23T02:53:46.654Z,95260.00
2018-09-23T02:56:18.754Z,95265.00
2018-09-23T02:58:50.902Z,95267.00
2018-09-23T03:01:23.183Z,95261.00
2018-09-23T03:03:56.821Z,95270.00
2018-09-23T03:06:28.914Z,95272.00
2018-09-23T03:09:01.075Z,95272.00
2018-09-23T03:11:33.067Z,95272.00
2018-09-23T03:14:04.955Z,95268.00
2018-09-23T03:16:37.119Z,95264.00
2018-09-23T03:19:08.674Z,95263.00
2018-09-23T03:21:40.686Z,95262.00
2018-09-23T03:24:12.967Z,95264.00
2018-09-23T03:26:45.197Z,95262.00
2018-09-23T03:29:17.951Z,95266.00
2018-09-23T03:31:50.050Z,95258.00
2018-09-23T03:34:23.132Z,95254.00
2018-09-23T03:36:55.106Z,95254.00
2018-09-23T03:39:27.140Z,95256.00
2018-09-23T03:41:58.819Z,95252.00
2018-09-23T03:44:30.619Z,95257.00
2018-09-23T03:47:02.615Z,95258.00
2018-09-23T03:49:34.570Z,95256.00
2018-09-23T03:52:06.785Z,95265.00
2018-09-23T03:54:38.732Z,95252.00
2018-09-23T03:57:10.695Z,95260.00
2018-09-23T03:59:42.549Z,95270.00
2018-09-23T04:02:14.967Z,95278.00
2018-09-23T04:04:47.038Z,95276.00
2018-09-23T04:07:19.017Z,95287.00
2018-09-23T04:09:50.931Z,95293.00
2018-09-23T04:12:23.132Z,95287.00
2018-09-23T04:14:55.020Z,95288.00
2018-09-23T04:17:26.939Z,95289.00
2018-09-23T04:19:59.141Z,95292.00
2018-09-23T04:22:34.830Z,95291.00
2018-09-23T04:25:06.743Z,95292.00
2018-09-23T04:27:38.996Z,95290.00
2018-09-23T04:30:11.000Z,95290.00
2018-09-23T04:32:42.812Z,95293.00
2018-09-23T04:35:15.006Z,95296.00
2018-09-23T04:37:47.741Z,95302.00
2018-09-23T04:40:19.792Z,95305.00
2018-09-23T04:42:51.652Z,95307.00
2018-09-23T04:45:23.560Z,95307.00
2018-09-23T04:47:56.490Z,95302.00
2018-09-23T04:50:28.085Z,95297.00
2018-09-23T04:52:59.767Z,95301.00
2018-09-23T04:55:31.879Z,95297.00
2018-09-23T04:58:04.313Z,95305.00
2018-09-23T05:00:36.224Z,95312.00
2018-09-23T05:03:08.325Z,95317.00
2018-09-23T05:05:40.981Z,95319.00
2018-09-23T05:08:12.605Z,95323.00
2018-09-23T05:10:44.748Z,95326.00
2018-09-23T05:13:17.333Z,95323.00
2018-09-23T05:15:50.150Z,95324.00
2018-09-23T05:18:22.378Z,95324.00
2018-09-23T05:20:54.426Z,95324.00
2018-09-23T05:23:27.255Z,95330.00
2018-09-23T05:25:58.970Z,95331.00
2018-09-23T05:28:31.831Z,95326.00
2018-09-23T05:31:04.180Z,95326.00
2018-09-23T05:33:36.182Z,95333.00
2018-09-23T05:36:08.639Z,95335.00
2018-09-23T05:38:40.596Z,95335.00
2018-09-23T05:41:12.705Z,95333.00
2018-09-23T05:43:44.406Z,95332.00
2018-09-23T05:46:16.767Z,95328.00
2018-09-23T05:48:49.167Z,95332.00
2018-09-23T05:51:21.295Z,95335.00
2018-09-23T05:53:53.585Z,95341.00
2018-09-23T05:56:26.062Z,95349.00
2018-09-23T05:58:58.816Z,95340.00
2018-09-23T06:01:30.608Z,95341.00
2018-09-23T06:04:02.540Z,95344.00
2018-09-23T06:06:34.318Z,95343.00
2018-09-23T06:09:06.991Z,95341.00
2018-09-23T06:11:39.399Z,95342.00
2018-09-23T06:14:11.519Z,95345.00
2018-09-23T06:16:44.420Z,95341.00
2018-09-23T06:19:18.780Z,95335.00
2018-09-23T06:21:50.880Z,95337.00
2018-09-23T06:24:23.197Z,95335.00
2018-09-23T06:26:55.668Z,95342.00
2018-09-23T06:29:28.087Z,95338.00
2018-09-23T06:31:59.680Z,95338.00
2018-09-23T06:34:31.465Z,95336.00
2018-09-23T06:37:03.706Z,95341.00
2018-09-23T06:39:35.965Z,95345.00
2018-09-23T06:42:08.137Z,95348.00
2018-09-23T06:44:40.303Z,95348.00
2018-09-23T06:47:12.363Z,95349.00
2018-09-23T06:49:45.046Z,95352.00
2018-09-23T06:52:17.557Z,95345.00
2018-09-23T06:54:51.029Z,95349.00
2018-09-23T06:57:23.387Z,95348.00
2018-09-23T06:59:55.828Z,95346.00
2018-09-23T07:02:27.974Z,95353.00
2018-09-23T07:04:59.973Z,95357.00
2018-09-23T07:07:33.263Z,95353.00
2018-09-23T07:10:05.931Z,95336.00
2018-09-23T07:12:38.153Z,95347.00
2018-09-23T07:15:10.480Z,95339.00
2018-09-23T07:17:42.438Z,95338.00
2018-09-23T07:20:14.829Z,95338.00
2018-09-23T07:22:47.265Z,95340.00
2018-09-23T07:25:19.712Z,95346.00
2018-09-23T07:27:51.896Z,95346.00
2018-09-23T07:30:24.037Z,95345.00
2018-09-23T07:32:56.058Z,95341.00
2018-09-23T07:35:28.281Z,95341.00
2018-09-23T07:38:00.705Z,95341.00
2018-09-23T07:40:33.797Z,95340.00
2018-09-23T07:43:05.815Z,95337.00
2018-09-23T07:45:37.940Z,95337.00
2018-09-23T07:48:10.497Z,95336.00
2018-09-23T07:50:43.958Z,95336.00
2018-09-23T07:53:16.730Z,95336.00
2018-09-23T07:55:48.942Z,95334.00
2018-09-23T07:58:20.969Z,95331.00
2018-09-23T08:00:52.851Z,95326.00
2018-09-23T08:03:25.387Z,95327.00
2018-09-23T08:05:57.779Z,95322.00
2018-09-23T08:08:30.514Z,95326.00
2018-09-23T08:11:02.742Z,95322.00
2018-09-23T08:13:35.028Z,95320.00
2018-09-23T08:16:07.359Z,95323.00
2018-09-23T08:18:39.671Z,95326.00
2018-09-23T08:21:11.804Z,95328.00
2018-09-23T08:23:43.526Z,95326.00
2018-09-23T08:26:16.504Z,95324.00
2018-09-23T08:28:48.745Z,95325.00
2018-09-23T08:31:20.764Z,95323.00
2018-09-23T08:33:53.414Z,95323.00
2018-09-23T08:36:26.104Z,95319.00
2018-09-23T08:38:58.400Z,95312.00
2018-09-23T08:41:30.527Z,95308.00
2018-09-23T08:44:03.218Z,95306.00
2018-09-23T08:46:35.551Z,95305.00
2018-09-23T08:49:07.981Z,95300.00
2018-09-23T08:51:40.570Z,95302.00
2018-09-23T08:54:12.755Z,95301.00
2018-09-23T08:56:45.229Z,95291.00
2018-09-23T08:59:17.602Z,95289.00
2018-09-23T09:01:49.845Z,95289.00
2018-09-23T09:04:22.154Z,95290.00
2018-09-23T09:06:53.984Z,95295.00
2018-09-23T09:09:26.050Z,95289.00
2018-09-23T09:11:58.292Z,95273.00
2018-09-23T09:14:30.680Z,95275.00
2018-09-23T09:17:02.768Z,95270.00
2018-09-23T09:19:35.350Z,95268.00
2018-09-23T09:22:07.592Z,95266.00
2018-09-23T09:24:39.482Z,95268.00
2018-09-23T09:27:11.791Z,95271.00
2018-09-23T09:29:44.542Z,95268.00
2018-09-23T09:32:17.673Z,95270.00
2018-09-23T09:34:50.398Z,95268.00
2018-09-23T09:37:24.714Z,95271.00
2018-09-23T09:39:57.057Z,95269.00
2018-09-23T09:42:29.097Z,95262.00
2018-09-23T09:45:01.235Z,95265.00
2018-09-23T09:47:33.795Z,95261.00
2018-09-23T09:50:06.295Z,95259.00
2018-09-23T09:52:38.606Z,95261.00
2018-09-23T09:55:11.046Z,95262.00
2018-09-23T09:57:42.815Z,95256.00
2018-09-23T10:00:18.646Z,95252.00
2018-09-23T10:02:50.604Z,95242.00
2018-09-23T10:05:23.112Z,95237.00
2018-09-23T10:07:57.328Z,95234.00
2018-09-23T10:10:31.945Z,95233.00
2018-09-23T10:13:04.008Z,95228.00
2018-09-23T10:15:35.577Z,95226.00
2018-09-23T10:18:07.902Z,95224.00
2018-09-23T10:20:40.445Z,95222.00
2018-09-23T10:23:12.813Z,95218.00
2018-09-23T10:25:45.313Z,95216.00
2018-09-23T10:28:17.488Z,95213.00
2018-09-23T10:30:49.657Z,95210.00
2018-09-23T10:33:21.343Z,95214.00
2018-09-23T10:35:53.258Z,95206.00
2018-09-23T10:38:25.187Z,95211.00
2018-09-23T10:40:57.331Z,95207.00
2018-09-23T10:43:29.435Z,95200.00
2018-09-23T10:46:01.608Z,95199.00
2018-09-23T10:48:34.438Z,95195.00
2018-09-23T10:51:07.301Z,95192.00
2018-09-23T10:53:39.056Z,95181.00
2018-09-23T10:56:11.183Z,95184.00
2018-09-23T10:58:43.423Z,95176.00
2018-09-23T11:01:15.708Z,95175.00
2018-09-23T11:03:47.868Z,95173.00
2018-09-23T11:06:20.139Z,95168.00
2018-09-23T11:08:52.559Z,95164.00
2018-09-23T11:11:24.527Z,95162.00
2018-09-23T11:13:56.540Z,95158.00
2018-09-23T11:16:28.571Z,95151.00
2018-09-23T11:19:01.077Z,95153.00
2018-09-23T11:21:33.296Z,95147.00
2018-09-23T11:24:05.896Z,95150.00
2018-09-23T11:26:38.147Z,95145.00
2018-09-23T11:29:10.064Z,95137.00
2018-09-23T11:31:42.180Z,95141.00
2018-09-23T11:34:14.212Z,95134.00
2018-09-23T11:36:46.417Z,95124.00
2018-09-23T11:39:18.580Z,95125.00
2018-09-23T11:41:50.872Z,95123.00
2018-09-23T11:44:22.901Z,95126.00
2018-09-23T11:46:54.573Z,95123.00
2018-09-23T11:49:27.285Z,95118.00
2018-09-23T11:52:00.522Z,95109.00
2018-09-23T11:54:34.901Z,95105.00
2018-09-23T11:57:07.740Z,95104.00
2018-09-23T11:59:41.670Z,95093.00
2018-09-23T12:02:14.438Z,95093.00
2018-09-23T12:04:46.452Z,95089.00
2018-09-23T12:07:18.975Z,95087.00
2018-09-23T12:09:52.745Z,95083.00
2018-09-23T12:12:24.908Z,95081.00
2018-09-23T12:14:57.526Z,95070.00
2018-09-23T12:17:30.020Z,95070.00
2018-09-23T12:20:02.249Z,95073.00
2018-09-23T12:22:33.995Z,95074.00
2018-09-23T12:25:06.255Z,95072.00
2018-09-23T12:27:38.895Z,95071.00
2018-09-23T12:30:11.204Z,95062.00
2018-09-23T12:32:43.883Z,95056.00
2018-09-23T12:35:16.567Z,95058.00
2018-09-23T12:37:48.821Z,95053.00
2018-09-23T12:40:20.923Z,95050.00
2018-09-23T12:42:52.713Z,95044.00
2018-09-23T12:45:25.698Z,95040.00
2018-09-23T12:47:57.970Z,95040.00
2018-09-23T12:50:31.011Z,95040.00
2018-09-23T12:53:03.290Z,95040.00
2018-09-23T12:55:35.989Z,95043.00
2018-09-23T12:58:09.104Z,95036.00
2018-09-23T13:00:41.630Z,95043.00
2018-09-23T13:03:14.310Z,95039.00
2018-09-23T13:05:46.665Z,95037.00
2018-09-23T13:08:18.985Z,95042.00
2018-09-23T13:10:51.370Z,95041.00
2018-09-23T13:13:23.458Z,95037.00
2018-09-23T13:15:55.665Z,95034.00
2018-09-23T13:18:27.631Z,95035.00
2018-09-23T13:20:59.674Z,95035.00
2018-09-23T13:23:32.068Z,95036.00
2018-09-23T13:26:04.506Z,95036.00
2018-09-23T13:28:37.226Z,95030.00
2018-09-23T13:31:09.199Z,95029.00
2018-09-23T13:33:41.649Z,95024.00
2018-09-23T13:36:14.099Z,95024.00
2018-09-23T13:38:46.259Z,95024.00
2018-09-23T13:41:18.475Z,95024.00
2018-09-23T13:43:50.747Z,95024.00
2018-09-23T13:46:22.965Z,95031.00
2018-09-23T13:48:55.237Z,95023.00
2018-09-23T13:51:27.945Z,95021.00
2018-09-23T13:54:00.611Z,95017.00
2018-09-23T13:56:32.344Z,95019.00
2018-09-23T13:59:05.409Z,95016.00
2018-09-23T14:01:37.555Z,95011.00
2018-09-23T14:04:10.096Z,95016.00
2018-09-23T14:06:42.660Z,95015.00
2018-09-23T14:09:14.946Z,95012.00
2018-09-23T14:11:47.336Z,95009.00
2018-09-23T14:14:20.023Z,95007.00
2018-09-23T14:16:52.549Z,95007.00
2018-09-23T14:19:24.708Z,95010.00
2018-09-23T14:21:57.204Z,95002.00
2018-09-23T14:24:30.094Z,95003.00
2018-09-23T14:27:02.388Z,95005.00
2018-09-23T14:29:34.546Z,95003.00
2018-09-23T14:32:06.585Z,95005.00
2018-09-23T14:34:39.663Z,95006.00
2018-09-23T14:37:12.098Z,95006.00
2018-09-23T14:39:44.166Z,95013.00
2018-09-23T14:42:16.574Z,95013.00
2018-09-23T14:44:48.932Z,95012.00
2018-09-23T14:47:21.939Z,95014.00
2018-09-23T14:49:53.701Z,95014.00
2018-09-23T14:52:26.408Z,95011.00
2018-09-23T14:54:58.441Z,95015.00
2018-09-23T14:57:30.891Z,95013.00
2018-09-23T15:00:03.421Z,95012.00
2018-09-23T15:02:35.827Z,95010.00
2018-09-23T15:05:07.783Z,95008.00
2018-09-23T15:07:40.129Z,95006.00
2018-09-23T15:10:12.526Z,95009.00
2018-09-23T15:12:46.091Z,95013.00
2018-09-23T15:15:18.618Z,95016.00
2018-09-23T15:17:51.151Z,95018.00
2018-09-23T15:20:23.824Z,95014.00
2018-09-23T15:22:56.309Z,95019.00
2018-09-23T15:25:28.352Z,95021.00
2018-09-23T15:28:01.105Z,95023.00
2018-09-23T15:30:34.069Z,95018.00
2018-09-23T15:33:07.900Z,95019.00
2018-09-23T15:35:40.193Z,95024.00
2018-09-23T15:38:12.359Z,95022.00
2018-09-23T15:40:44.327Z,95025.00
2018-09-23T15:43:16.722Z,95028.00
2018-09-23T15:45:48.822Z,95027.00
2018-09-23T15:48:20.917Z,95033.00
2018-09-23T15:50:53.504Z,95033.00
2018-09-23T15:53:26.113Z,95035.00
2018-09-23T15:55:58.306Z,95031.00
2018-09-23T15:58:30.362Z,95032.00
2018-09-23T16:01:03.056Z,95034.00
2018-09-23T16:03:35.915Z,95034.00
2018-09-23T16:06:08.250Z,95034.00
2018-09-23T16:08:40.541Z,95032.00
2018-09-23T16:11:12.649Z,95035.00
2018-09-23T16:13:45.393Z,95034.00
2018-09-23T16:16:17.159Z,95039.00
2018-09-23T16:18:49.666Z,95035.00
2018-09-23T16:21:21.863Z,95042.00
2018-09-23T16:23:54.576Z,95039.00
2018-09-23T16:26:26.925Z,95039.00
2018-09-23T16:28:59.227Z,95042.00
2018-09-23T16:31:31.332Z,95036.00
2018-09-23T16:34:03.626Z,95041.00
2018-09-23T16:36:36.715Z,95043.00
2018-09-23T16:39:11.311Z,95046.00
2018-09-23T16:41:43.771Z,95044.00
2018-09-23T16:44:16.268Z,95040.00
2018-09-23T16:46:49.283Z,95044.00
2018-09-23T16:49:21.373Z,95041.00
2018-09-23T16:51:53.069Z,95037.00
2018-09-23T16:54:24.811Z,95040.00
2018-09-23T16:56:57.194Z,95049.00
2018-09-23T16:59:29.599Z,95046.00
2018-09-23T17:02:02.163Z,95055.00
2018-09-23T17:04:35.700Z,95055.00
2018-09-23T17:07:10.520Z,95056.00
2018-09-23T17:09:43.708Z,95054.00
2018-09-23T17:12:15.337Z,95061.00
2018-09-23T17:14:47.794Z,95066.00
2018-09-23T17:17:20.007Z,95064.00
2018-09-23T17:19:52.226Z,95066.00
2018-09-23T17:22:24.592Z,95068.00
2018-09-23T17:24:56.881Z,95071.00
2018-09-23T17:27:29.482Z,95064.00
2018-09-23T17:30:03.569Z,95070.00
2018-09-23T17:32:35.806Z,95070.00
2018-09-23T17:35:08.680Z,95078.00
2018-09-23T17:37:42.231Z,95078.00
2018-09-23T17:40:14.705Z,95079.00
2018-09-23T17:42:47.870Z,95079.00
2018-09-23T17:45:19.728Z,95084.00
2018-09-23T17:47:51.644Z,95086.00
2018-09-23T17:50:24.368Z,95085.00
2018-09-23T17:52:57.086Z,95087.00
2018-09-23T17:55:29.633Z,95089.00
2018-09-23T17:58:02.389Z,95098.00
2018-09-23T18:00:34.903Z,95094.00
2018-09-23T18:03:07.319Z,95097.00
2018-09-23T18:05:39.365Z,95096.00
2018-09-23T18:08:11.842Z,95101.00
2018-09-23T18:10:44.468Z,95102.00
2018-09-23T18:13:17.654Z,95099.00
2018-09-23T18:15:50.325Z,95098.00
2018-09-23T18:18:23.440Z,95094.00
2018-09-23T18:20:55.710Z,95096.00
2018-09-23T18:23:28.743Z,95089.00
2018-09-23T18:26:01.617Z,95092.00
2018-09-23T18:28:35.700Z,95094.00
2018-09-23T18:31:08.932Z,95089.00
2018-09-23T18:33:41.920Z,95088.00
2018-09-23T18:36:14.327Z,95085.00
2018-09-23T18:38:46.742Z,95086.00
2018-09-23T18:41:19.461Z,95090.00
2018-09-23T18:43:51.849Z,95094.00
2018-09-23T18:46:24.055Z,95095.00
2018-09-23T18:48:56.224Z,95094.00
2018-09-23T18:51:28.458Z,95086.00
2018-09-23T18:54:05.934Z,95095.00
2018-09-23T18:56:38.374Z,95097.00
2018-09-23T18:59:11.924Z,95090.00
2018-09-23T19:01:44.668Z,95096.00
2018-09-23T19:04:16.919Z,95095.00
2018-09-23T19:06:49.276Z,95095.00
2018-09-23T19:09:21.547Z,95098.00
2018-09-23T19:11:53.356Z,95099.00
2018-09-23T19:14:25.214Z,95097.00
2018-09-23T19:16:57.591Z,95099.00
2018-09-23T19:19:36.037Z,95092.00
2018-09-23T19:22:13.373Z,95094.00
2018-09-23T19:24:46.377Z,95092.00
2018-09-23T19:27:19.111Z,95085.00
2018-09-23T19:29:51.722Z,95088.00
2018-09-23T19:32:23.608Z,95090.00
2018-09-23T19:34:56.232Z,95085.00
2018-09-23T19:37:28.793Z,95090.00
2018-09-23T19:40:01.322Z,95086.00
2018-09-23T19:42:33.963Z,95088.00
2018-09-23T19:45:07.488Z,95088.00
2018-09-23T19:47:39.873Z,95087.00
2018-09-23T19:50:11.829Z,95084.00
2018-09-23T19:52:43.669Z,95092.00
2018-09-23T19:55:16.435Z,95092.00
2018-09-23T19:57:49.273Z,95090.00
2018-09-23T20:00:21.644Z,95093.00
2018-09-23T20:02:53.960Z,95086.00
2018-09-23T20:05:26.941Z,95084.00
2018-09-23T20:07:59.741Z,95090.00
2018-09-23T20:10:32.293Z,95086.00
2018-09-23T20:13:05.082Z,95086.00
2018-09-23T20:15:37.587Z,95083.00
2018-09-23T20:18:10.105Z,95083.00
2018-09-23T20:20:42.391Z,95083.00
2018-09-23T20:23:14.686Z,95087.00
2018-09-23T20:25:47.100Z,95088.00
2018-09-23T20:28:19.432Z,95081.00
2018-09-23T20:30:51.729Z,95080.00
2018-09-23T20:33:24.201Z,95085.00
2018-09-23T20:35:56.426Z,95078.00
2018-09-23T20:38:28.546Z,95080.00
2018-09-23T20:41:00.500Z,95070.00
2018-09-23T20:43:33.438Z,95073.00
2018-09-23T20:46:05.664Z,95072.00
2018-09-23T20:48:37.770Z,95067.00
2018-09-23T20:51:10.262Z,95064.00
2018-09-23T20:53:43.014Z,95058.00
2018-09-23T20:56:15.529Z,95058.00
2018-09-23T20:58:47.332Z,95049.00
2018-09-23T21:01:19.576Z,95051.00
2018-09-23T21:03:51.841Z,95046.00
2018-09-23T21:06:23.936Z,95048.00
2018-09-23T21:08:56.025Z,95044.00
2018-09-23T21:11:28.334Z,95044.00
2018-09-23T21:14:00.905Z,95044.00
2018-09-23T21:16:32.733Z,95042.00
2018-09-23T21:19:05.120Z,95034.00
2018-09-23T21:21:37.569Z,95033.00
2018-09-23T21:24:09.649Z,95035.00
2018-09-23T21:26:42.502Z,95036.00
2018-09-23T21:29:15.074Z,95034.00
2018-09-23T21:31:47.251Z,95030.00
2018-09-23T21:34:19.080Z,95033.00
2018-09-23T21:36:51.448Z,95034.00
2018-09-23T21:39:23.262Z,95034.00
2018-09-23T21:41:55.587Z,95028.00
2018-09-23T21:44:27.633Z,95032.00
2018-09-23T21:46:59.755Z,95029.00
2018-09-23T21:49:32.488Z,95028.00
2018-09-23T21:52:05.824Z,95026.00
2018-09-23T21:54:38.204Z,95028.00
2018-09-23T21:57:10.269Z,95024.00
2018-09-23T21:59:42.476Z,95030.00
2018-09-23T22:02:14.895Z,95020.00
2018-09-23T22:04:46.943Z,95019.00
2018-09-23T22:07:18.945Z,95019.00
2018-09-23T22:09:52.074Z,95014.00
2018-09-23T22:12:24.303Z,95017.00
2018-09-23T22:14:57.275Z,95015.00
2018-09-23T22:17:29.084Z,95009.00
2018-09-23T22:20:01.289Z,95011.00
2018-09-23T22:22:33.825Z,95008.00
2018-09-23T22:25:05.791Z,95006.00
2018-09-23T22:27:37.738Z,95005.00
2018-09-23T22:30:10.366Z,95004.00
2018-09-23T22:32:42.498Z,94999.00
2018-09-23T22:35:14.482Z,95005.00
2018-09-23T22:37:46.514Z,94999.00
2018-09-23T22:40:18.504Z,95000.00
2018-09-23T22:42:50.592Z,94999.00
2018-09-23T22:45:22.792Z,94999.00
2018-09-23T22:47:54.891Z,94993.00
2018-09-23T22:50:27.314Z,94996.00
2018-09-23T22:52:59.833Z,94994.00
2018-09-23T22:55:31.816Z,94990.00
2018-09-23T22:58:04.904Z,94993.00
2018-09-23T23:00:37.330Z,94979.00
2018-09-23T23:03:09.925Z,94982.00
2018-09-23T23:05:42.080Z,94976.00
2018-09-23T23:08:14.395Z,94970.00
2018-09-23T23:10:46.431Z,94975.00
2018-09-23T23:13:18.614Z,94972.00
2018-09-23T23:15:50.813Z,94970.00
2018-09-23T23:18:22.750Z,94971.00
2018-09-23T23:20:54.750Z,94968.00
2018-09-23T23:23:27.300Z,94965.00
2018-09-23T23:25:59.720Z,94958.00
2018-09-23T23:28:32.561Z,94952.00
2018-09-23T23:31:05.170Z,94947.00
2018-09-23T23:33:37.330Z,94952.00
2018-09-23T23:36:09.515Z,94951.00
2018-09-23T23:38:41.434Z,94942.00
2018-09-23T23:41:13.479Z,94943.00
2018-09-23T23:43:45.470Z,94948.00
2018-09-23T23:46:17.499Z,94948.00
2018-09-23T23:48:49.597Z,94945.00
2018-09-23T23:51:21.620Z,94940.00
2018-09-23T23:53:53.662Z,94932.00
2018-09-23T23:56:25.399Z,94939.00
2018-09-23T23:58:57.398Z,94928.00
